sensor_id;sensor_type;location;lat;lon;timestamp;P1;durP1;ratioP1;P2;durP2;ratioP2
26040;SDS011;13816;53.628;9.950;2022-11-15T00:00:55;40.73;;;27.47;;
26040;SDS011;13816;53.628;9.950;2022-11-15T00:03:40;42.87;;;29.17;;
26040;SDS011;13816;53.628;9.950;2022-11-15T00:06:24;41.27;;;27.67;;
26040;SDS011;13816;53.628;9.950;2022-11-15T00:09:08;44.77;;;29.90;;
26040;SDS011;13816;53.628;9.950;2022-11-15T00:11:52;49.40;;;30.20;;
26040;SDS011;13816;53.628;9.950;2022-11-15T00:14:36;42.13;;;28.53;;
26040;SDS011;13816;53.628;9.950;2022-11-15T00:17:20;48.77;;;30.17;;
26040;SDS011;13816;53.628;9.950;2022-11-15T00:20:05;41.93;;;27.67;;
26040;SDS011;13816;53.628;9.950;2022-11-15T00:22:49;42.90;;;28.23;;
26040;SDS011;13816;53.628;9.950;2022-11-15T00:25:34;43.10;;;29.03;;
26040;SDS011;13816;53.628;9.950;2022-11-15T00:28:17;42.83;;;28.40;;
26040;SDS011;13816;53.628;9.950;2022-11-15T00:31:06;44.00;;;28.37;;
26040;SDS011;13816;53.628;9.950;2022-11-15T00:33:52;42.70;;;27.97;;
26040;SDS011;13816;53.628;9.950;2022-11-15T00:36:36;45.07;;;28.97;;
26040;SDS011;13816;53.628;9.950;2022-11-15T00:39:20;44.80;;;28.50;;
26040;SDS011;13816;53.628;9.950;2022-11-15T00:42:05;43.00;;;29.00;;
26040;SDS011;13816;53.628;9.950;2022-11-15T00:44:49;45.17;;;30.67;;
26040;SDS011;13816;53.628;9.950;2022-11-15T00:47:33;41.37;;;28.10;;
26040;SDS011;13816;53.628;9.950;2022-11-15T00:50:17;39.73;;;27.30;;
26040;SDS011;13816;53.628;9.950;2022-11-15T00:53:02;42.73;;;29.23;;
26040;SDS011;13816;53.628;9.950;2022-11-15T00:55:46;45.60;;;29.20;;
26040;SDS011;13816;53.628;9.950;2022-11-15T00:58:30;40.03;;;26.67;;
26040;SDS011;13816;53.628;9.950;2022-11-15T01:01:14;39.30;;;28.27;;
26040;SDS011;13816;53.628;9.950;2022-11-15T01:03:58;38.33;;;26.63;;
26040;SDS011;13816;53.628;9.950;2022-11-15T01:06:42;40.57;;;27.30;;
26040;SDS011;13816;53.628;9.950;2022-11-15T01:09:27;41.57;;;27.63;;
26040;SDS011;13816;53.628;9.950;2022-11-15T01:12:12;44.13;;;28.60;;
26040;SDS011;13816;53.628;9.950;2022-11-15T01:14:56;41.63;;;28.40;;
26040;SDS011;13816;53.628;9.950;2022-11-15T01:17:41;39.90;;;27.27;;
26040;SDS011;13816;53.628;9.950;2022-11-15T01:20:25;40.87;;;27.10;;
26040;SDS011;13816;53.628;9.950;2022-11-15T01:23:09;41.47;;;28.60;;
26040;SDS011;13816;53.628;9.950;2022-11-15T01:25:57;44.23;;;28.50;;
26040;SDS011;13816;53.628;9.950;2022-11-15T01:28:43;43.20;;;26.20;;
26040;SDS011;13816;53.628;9.950;2022-11-15T01:31:27;36.27;;;26.00;;
26040;SDS011;13816;53.628;9.950;2022-11-15T01:34:11;37.20;;;26.33;;
26040;SDS011;13816;53.628;9.950;2022-11-15T01:36:56;45.03;;;29.77;;
26040;SDS011;13816;53.628;9.950;2022-11-15T01:39:40;38.77;;;26.63;;
26040;SDS011;13816;53.628;9.950;2022-11-15T01:42:24;40.60;;;27.47;;
26040;SDS011;13816;53.628;9.950;2022-11-15T01:45:12;37.53;;;27.80;;
26040;SDS011;13816;53.628;9.950;2022-11-15T01:47:58;37.87;;;26.70;;
26040;SDS011;13816;53.628;9.950;2022-11-15T01:50:43;39.40;;;27.30;;
26040;SDS011;13816;53.628;9.950;2022-11-15T01:53:27;41.07;;;27.00;;
26040;SDS011;13816;53.628;9.950;2022-11-15T01:56:14;42.63;;;27.03;;
26040;SDS011;13816;53.628;9.950;2022-11-15T01:59:05;43.47;;;27.53;;
26040;SDS011;13816;53.628;9.950;2022-11-15T02:01:51;39.40;;;26.97;;
26040;SDS011;13816;53.628;9.950;2022-11-15T02:04:41;41.40;;;27.50;;
26040;SDS011;13816;53.628;9.950;2022-11-15T02:07:28;36.90;;;26.93;;
26040;SDS011;13816;53.628;9.950;2022-11-15T02:10:17;43.80;;;28.90;;
26040;SDS011;13816;53.628;9.950;2022-11-15T02:13:04;40.67;;;27.20;;
26040;SDS011;13816;53.628;9.950;2022-11-15T02:25:21;48.27;;;27.93;;
26040;SDS011;13816;53.628;9.950;2022-11-15T02:40:52;37.13;;;25.17;;
26040;SDS011;13816;53.628;9.950;2022-11-15T02:43:46;38.50;;;25.80;;
26040;SDS011;13816;53.628;9.950;2022-11-15T02:47:02;40.87;;;25.83;;
26040;SDS011;13816;53.628;9.950;2022-11-15T02:49:58;36.70;;;23.27;;
26040;SDS011;13816;53.628;9.950;2022-11-15T02:52:51;34.73;;;24.33;;
26040;SDS011;13816;53.628;9.950;2022-11-15T02:55:38;36.17;;;25.17;;
26040;SDS011;13816;53.628;9.950;2022-11-15T03:04:44;37.80;;;25.17;;
26040;SDS011;13816;53.628;9.950;2022-11-15T03:07:36;38.40;;;26.20;;
26040;SDS011;13816;53.628;9.950;2022-11-15T03:13:24;38.07;;;26.20;;
26040;SDS011;13816;53.628;9.950;2022-11-15T03:16:26;34.73;;;24.97;;
26040;SDS011;13816;53.628;9.950;2022-11-15T03:19:35;33.70;;;23.93;;
26040;SDS011;13816;53.628;9.950;2022-11-15T03:22:24;35.73;;;25.53;;
26040;SDS011;13816;53.628;9.950;2022-11-15T03:25:13;37.30;;;24.60;;
26040;SDS011;13816;53.628;9.950;2022-11-15T03:28:04;37.63;;;24.30;;
26040;SDS011;13816;53.628;9.950;2022-11-15T03:30:50;34.70;;;23.90;;
26040;SDS011;13816;53.628;9.950;2022-11-15T03:33:40;40.70;;;24.93;;
26040;SDS011;13816;53.628;9.950;2022-11-15T03:36:26;33.70;;;23.57;;
26040;SDS011;13816;53.628;9.950;2022-11-15T03:39:11;46.57;;;25.17;;
26040;SDS011;13816;53.628;9.950;2022-11-15T03:47:49;40.00;;;23.27;;
26040;SDS011;13816;53.628;9.950;2022-11-15T03:50:38;38.63;;;23.90;;
26040;SDS011;13816;53.628;9.950;2022-11-15T03:53:23;33.57;;;23.70;;
26040;SDS011;13816;53.628;9.950;2022-11-15T03:56:07;40.13;;;24.33;;
26040;SDS011;13816;53.628;9.950;2022-11-15T03:58:52;40.37;;;23.80;;
26040;SDS011;13816;53.628;9.950;2022-11-15T04:01:36;31.67;;;22.67;;
26040;SDS011;13816;53.628;9.950;2022-11-15T04:04:20;33.40;;;23.03;;
26040;SDS011;13816;53.628;9.950;2022-11-15T04:07:04;33.30;;;22.67;;
26040;SDS011;13816;53.628;9.950;2022-11-15T04:09:49;35.20;;;23.60;;
26040;SDS011;13816;53.628;9.950;2022-11-15T04:12:48;29.93;;;21.90;;
26040;SDS011;13816;53.628;9.950;2022-11-15T04:15:33;30.10;;;22.10;;
26040;SDS011;13816;53.628;9.950;2022-11-15T04:18:18;28.17;;;20.83;;
26040;SDS011;13816;53.628;9.950;2022-11-15T04:21:02;32.80;;;22.90;;
26040;SDS011;13816;53.628;9.950;2022-11-15T04:24:05;26.33;;;21.20;;
26040;SDS011;13816;53.628;9.950;2022-11-15T04:26:58;30.80;;;21.90;;
26040;SDS011;13816;53.628;9.950;2022-11-15T04:29:43;36.67;;;23.93;;
26040;SDS011;13816;53.628;9.950;2022-11-15T04:32:27;31.50;;;21.00;;
26040;SDS011;13816;53.628;9.950;2022-11-15T04:35:11;31.30;;;22.63;;
26040;SDS011;13816;53.628;9.950;2022-11-15T04:37:56;31.70;;;21.23;;
26040;SDS011;13816;53.628;9.950;2022-11-15T04:40:40;36.10;;;24.17;;
26040;SDS011;13816;53.628;9.950;2022-11-15T04:43:24;31.90;;;21.77;;
26040;SDS011;13816;53.628;9.950;2022-11-15T04:46:08;29.53;;;20.40;;
26040;SDS011;13816;53.628;9.950;2022-11-15T04:48:53;29.03;;;20.67;;
26040;SDS011;13816;53.628;9.950;2022-11-15T04:51:37;26.83;;;20.37;;
26040;SDS011;13816;53.628;9.950;2022-11-15T04:54:21;30.83;;;20.37;;
26040;SDS011;13816;53.628;9.950;2022-11-15T04:57:05;30.87;;;22.87;;
26040;SDS011;13816;53.628;9.950;2022-11-15T04:59:50;32.53;;;22.47;;
26040;SDS011;13816;53.628;9.950;2022-11-15T05:02:34;32.00;;;21.47;;
26040;SDS011;13816;53.628;9.950;2022-11-15T05:05:37;35.50;;;22.77;;
26040;SDS011;13816;53.628;9.950;2022-11-15T05:08:21;30.40;;;22.20;;
26040;SDS011;13816;53.628;9.950;2022-11-15T05:11:05;31.83;;;21.77;;
26040;SDS011;13816;53.628;9.950;2022-11-15T05:13:49;36.73;;;23.50;;
26040;SDS011;13816;53.628;9.950;2022-11-15T05:16:33;33.67;;;22.57;;
26040;SDS011;13816;53.628;9.950;2022-11-15T05:19:18;32.80;;;20.87;;
26040;SDS011;13816;53.628;9.950;2022-11-15T05:22:02;32.00;;;24.20;;
26040;SDS011;13816;53.628;9.950;2022-11-15T05:24:46;31.67;;;22.17;;
26040;SDS011;13816;53.628;9.950;2022-11-15T05:27:30;29.03;;;22.87;;
26040;SDS011;13816;53.628;9.950;2022-11-15T05:30:16;28.70;;;21.07;;
26040;SDS011;13816;53.628;9.950;2022-11-15T05:33:00;28.50;;;21.80;;
26040;SDS011;13816;53.628;9.950;2022-11-15T05:35:46;32.50;;;21.10;;
26040;SDS011;13816;53.628;9.950;2022-11-15T05:38:38;31.40;;;20.43;;
26040;SDS011;13816;53.628;9.950;2022-11-15T05:41:25;28.10;;;20.17;;
26040;SDS011;13816;53.628;9.950;2022-11-15T05:44:14;30.13;;;20.80;;
26040;SDS011;13816;53.628;9.950;2022-11-15T05:47:01;29.73;;;22.43;;
26040;SDS011;13816;53.628;9.950;2022-11-15T05:49:49;33.90;;;20.47;;
26040;SDS011;13816;53.628;9.950;2022-11-15T05:52:36;29.13;;;19.90;;
26040;SDS011;13816;53.628;9.950;2022-11-15T05:55:21;26.93;;;19.17;;
26040;SDS011;13816;53.628;9.950;2022-11-15T05:58:06;28.90;;;19.97;;
26040;SDS011;13816;53.628;9.950;2022-11-15T06:00:50;26.13;;;19.30;;
26040;SDS011;13816;53.628;9.950;2022-11-15T06:03:34;29.23;;;19.93;;
26040;SDS011;13816;53.628;9.950;2022-11-15T06:06:18;29.23;;;19.03;;
26040;SDS011;13816;53.628;9.950;2022-11-15T06:09:02;28.57;;;20.20;;
26040;SDS011;13816;53.628;9.950;2022-11-15T06:11:46;29.53;;;19.57;;
26040;SDS011;13816;53.628;9.950;2022-11-15T06:14:31;31.13;;;20.93;;
26040;SDS011;13816;53.628;9.950;2022-11-15T06:17:15;33.97;;;20.10;;
26040;SDS011;13816;53.628;9.950;2022-11-15T06:19:59;25.80;;;18.40;;
26040;SDS011;13816;53.628;9.950;2022-11-15T06:22:43;25.47;;;19.13;;
26040;SDS011;13816;53.628;9.950;2022-11-15T06:25:28;31.53;;;20.20;;
26040;SDS011;13816;53.628;9.950;2022-11-15T06:28:13;31.57;;;20.50;;
26040;SDS011;13816;53.628;9.950;2022-11-15T06:31:04;28.90;;;18.93;;
26040;SDS011;13816;53.628;9.950;2022-11-15T06:33:54;25.93;;;19.40;;
26040;SDS011;13816;53.628;9.950;2022-11-15T06:36:39;26.40;;;19.10;;
26040;SDS011;13816;53.628;9.950;2022-11-15T06:39:23;25.53;;;18.67;;
26040;SDS011;13816;53.628;9.950;2022-11-15T06:42:10;28.10;;;18.90;;
26040;SDS011;13816;53.628;9.950;2022-11-15T06:44:54;27.63;;;19.57;;
26040;SDS011;13816;53.628;9.950;2022-11-15T06:47:47;31.40;;;19.83;;
26040;SDS011;13816;53.628;9.950;2022-11-15T06:50:31;28.17;;;20.10;;
26040;SDS011;13816;53.628;9.950;2022-11-15T06:53:16;26.77;;;19.40;;
26040;SDS011;13816;53.628;9.950;2022-11-15T06:56:01;29.00;;;19.70;;
26040;SDS011;13816;53.628;9.950;2022-11-15T06:58:49;26.73;;;19.93;;
26040;SDS011;13816;53.628;9.950;2022-11-15T07:01:33;27.60;;;18.20;;
26040;SDS011;13816;53.628;9.950;2022-11-15T07:04:18;30.03;;;19.17;;
26040;SDS011;13816;53.628;9.950;2022-11-15T07:07:02;31.07;;;19.73;;
26040;SDS011;13816;53.628;9.950;2022-11-15T07:09:46;26.00;;;18.83;;
26040;SDS011;13816;53.628;9.950;2022-11-15T07:12:30;26.80;;;18.60;;
26040;SDS011;13816;53.628;9.950;2022-11-15T07:15:14;28.63;;;19.93;;
26040;SDS011;13816;53.628;9.950;2022-11-15T07:18:00;28.63;;;20.27;;
26040;SDS011;13816;53.628;9.950;2022-11-15T07:20:45;25.60;;;17.90;;
26040;SDS011;13816;53.628;9.950;2022-11-15T07:23:29;29.10;;;19.33;;
26040;SDS011;13816;53.628;9.950;2022-11-15T07:26:14;26.07;;;19.47;;
26040;SDS011;13816;53.628;9.950;2022-11-15T07:28:58;25.93;;;18.80;;
26040;SDS011;13816;53.628;9.950;2022-11-15T07:31:43;24.33;;;18.27;;
26040;SDS011;13816;53.628;9.950;2022-11-15T07:34:27;26.17;;;18.47;;
26040;SDS011;13816;53.628;9.950;2022-11-15T07:37:11;28.50;;;19.27;;
26040;SDS011;13816;53.628;9.950;2022-11-15T07:39:56;30.80;;;19.27;;
26040;SDS011;13816;53.628;9.950;2022-11-15T07:42:40;26.73;;;19.50;;
26040;SDS011;13816;53.628;9.950;2022-11-15T07:45:44;30.23;;;18.73;;
26040;SDS011;13816;53.628;9.950;2022-11-15T07:48:29;26.70;;;19.20;;
26040;SDS011;13816;53.628;9.950;2022-11-15T07:51:14;27.60;;;19.43;;
26040;SDS011;13816;53.628;9.950;2022-11-15T07:53:59;28.83;;;18.13;;
26040;SDS011;13816;53.628;9.950;2022-11-15T07:56:43;29.27;;;19.13;;
26040;SDS011;13816;53.628;9.950;2022-11-15T07:59:28;30.60;;;18.63;;
26040;SDS011;13816;53.628;9.950;2022-11-15T08:02:12;27.87;;;19.87;;
26040;SDS011;13816;53.628;9.950;2022-11-15T08:04:56;25.67;;;17.80;;
26040;SDS011;13816;53.628;9.950;2022-11-15T08:07:40;26.80;;;19.30;;
26040;SDS011;13816;53.628;9.950;2022-11-15T08:10:25;28.77;;;19.53;;
26040;SDS011;13816;53.628;9.950;2022-11-15T08:13:10;26.43;;;18.80;;
26040;SDS011;13816;53.628;9.950;2022-11-15T08:15:59;28.03;;;18.37;;
26040;SDS011;13816;53.628;9.950;2022-11-15T08:18:44;27.17;;;19.07;;
26040;SDS011;13816;53.628;9.950;2022-11-15T08:21:29;30.27;;;20.13;;
26040;SDS011;13816;53.628;9.950;2022-11-15T08:24:13;31.90;;;20.17;;
26040;SDS011;13816;53.628;9.950;2022-11-15T08:26:57;25.07;;;19.10;;
26040;SDS011;13816;53.628;9.950;2022-11-15T08:29:42;25.90;;;18.87;;
26040;SDS011;13816;53.628;9.950;2022-11-15T08:32:27;25.30;;;18.87;;
26040;SDS011;13816;53.628;9.950;2022-11-15T08:35:12;32.77;;;19.60;;
26040;SDS011;13816;53.628;9.950;2022-11-15T08:37:56;29.70;;;19.90;;
26040;SDS011;13816;53.628;9.950;2022-11-15T08:40:40;29.93;;;18.40;;
26040;SDS011;13816;53.628;9.950;2022-11-15T08:43:24;29.50;;;19.20;;
26040;SDS011;13816;53.628;9.950;2022-11-15T08:46:10;28.57;;;19.40;;
26040;SDS011;13816;53.628;9.950;2022-11-15T08:48:57;25.43;;;17.50;;
26040;SDS011;13816;53.628;9.950;2022-11-15T08:51:42;31.00;;;19.97;;
26040;SDS011;13816;53.628;9.950;2022-11-15T08:54:26;25.73;;;19.20;;
26040;SDS011;13816;53.628;9.950;2022-11-15T08:57:10;26.53;;;19.50;;
26040;SDS011;13816;53.628;9.950;2022-11-15T08:59:54;25.77;;;18.47;;
26040;SDS011;13816;53.628;9.950;2022-11-15T09:02:39;29.33;;;18.67;;
26040;SDS011;13816;53.628;9.950;2022-11-15T09:05:24;28.03;;;18.00;;
26040;SDS011;13816;53.628;9.950;2022-11-15T09:08:08;24.63;;;18.20;;
26040;SDS011;13816;53.628;9.950;2022-11-15T09:10:52;28.30;;;19.30;;
26040;SDS011;13816;53.628;9.950;2022-11-15T09:13:37;28.60;;;19.10;;
26040;SDS011;13816;53.628;9.950;2022-11-15T09:16:21;26.90;;;19.60;;
26040;SDS011;13816;53.628;9.950;2022-11-15T09:19:06;29.67;;;19.13;;
26040;SDS011;13816;53.628;9.950;2022-11-15T09:21:51;35.23;;;19.57;;
26040;SDS011;13816;53.628;9.950;2022-11-15T09:24:35;24.00;;;17.73;;
26040;SDS011;13816;53.628;9.950;2022-11-15T09:27:20;27.93;;;18.57;;
26040;SDS011;13816;53.628;9.950;2022-11-15T09:30:04;30.30;;;17.90;;
26040;SDS011;13816;53.628;9.950;2022-11-15T09:32:49;28.10;;;19.80;;
26040;SDS011;13816;53.628;9.950;2022-11-15T09:35:33;33.10;;;19.73;;
26040;SDS011;13816;53.628;9.950;2022-11-15T09:38:18;28.50;;;18.70;;
26040;SDS011;13816;53.628;9.950;2022-11-15T09:50:28;30.33;;;18.33;;
26040;SDS011;13816;53.628;9.950;2022-11-15T09:53:03;27.53;;;18.80;;
26040;SDS011;13816;53.628;9.950;2022-11-15T09:55:34;23.07;;;17.67;;
26040;SDS011;13816;53.628;9.950;2022-11-15T09:58:27;24.77;;;18.40;;
26040;SDS011;13816;53.628;9.950;2022-11-15T10:01:19;24.60;;;17.93;;
26040;SDS011;13816;53.628;9.950;2022-11-15T10:03:53;21.90;;;17.87;;
26040;SDS011;13816;53.628;9.950;2022-11-15T10:06:23;23.43;;;17.40;;
26040;SDS011;13816;53.628;9.950;2022-11-15T10:11:20;22.07;;;16.97;;
26040;SDS011;13816;53.628;9.950;2022-11-15T10:13:49;23.47;;;17.70;;
26040;SDS011;13816;53.628;9.950;2022-11-15T10:24:19;24.67;;;17.13;;
26040;SDS011;13816;53.628;9.950;2022-11-15T10:26:49;22.63;;;17.17;;
26040;SDS011;13816;53.628;9.950;2022-11-15T10:29:22;22.73;;;17.07;;
26040;SDS011;13816;53.628;9.950;2022-11-15T10:31:49;24.40;;;17.57;;
26040;SDS011;13816;53.628;9.950;2022-11-15T10:34:16;20.90;;;16.10;;
26040;SDS011;13816;53.628;9.950;2022-11-15T10:36:45;26.63;;;16.97;;
26040;SDS011;13816;53.628;9.950;2022-11-15T10:39:13;22.50;;;17.07;;
26040;SDS011;13816;53.628;9.950;2022-11-15T10:41:40;22.17;;;17.57;;
26040;SDS011;13816;53.628;9.950;2022-11-15T10:44:18;29.20;;;16.67;;
26040;SDS011;13816;53.628;9.950;2022-11-15T10:47:32;21.87;;;15.37;;
26040;SDS011;13816;53.628;9.950;2022-11-15T10:50:06;20.67;;;15.90;;
26040;SDS011;13816;53.628;9.950;2022-11-15T10:52:51;24.80;;;16.47;;
26040;SDS011;13816;53.628;9.950;2022-11-15T10:57:48;26.40;;;16.90;;
26040;SDS011;13816;53.628;9.950;2022-11-15T11:02:47;19.40;;;15.83;;
26040;SDS011;13816;53.628;9.950;2022-11-15T11:05:31;25.13;;;19.10;;
26040;SDS011;13816;53.628;9.950;2022-11-15T11:08:04;22.83;;;15.63;;
26040;SDS011;13816;53.628;9.950;2022-11-15T11:10:39;23.27;;;15.37;;
26040;SDS011;13816;53.628;9.950;2022-11-15T11:13:27;22.90;;;15.40;;
26040;SDS011;13816;53.628;9.950;2022-11-15T11:18:37;20.83;;;15.03;;
26040;SDS011;13816;53.628;9.950;2022-11-15T11:21:08;18.57;;;15.00;;
26040;SDS011;13816;53.628;9.950;2022-11-15T11:29:19;19.80;;;13.80;;
26040;SDS011;13816;53.628;9.950;2022-11-15T11:34:49;17.27;;;12.90;;
26040;SDS011;13816;53.628;9.950;2022-11-15T11:37:56;19.67;;;13.30;;
26040;SDS011;13816;53.628;9.950;2022-11-15T11:49:34;26.77;;;13.23;;
26040;SDS011;13816;53.628;9.950;2022-11-15T11:57:39;16.90;;;12.67;;
26040;SDS011;13816;53.628;9.950;2022-11-15T12:00:20;15.07;;;11.53;;
26040;SDS011;13816;53.628;9.950;2022-11-15T12:05:27;16.30;;;12.33;;
26040;SDS011;13816;53.628;9.950;2022-11-15T12:10:41;20.70;;;11.43;;
26040;SDS011;13816;53.628;9.950;2022-11-15T12:13:16;16.77;;;12.13;;
26040;SDS011;13816;53.628;9.950;2022-11-15T12:18:18;15.97;;;12.47;;
26040;SDS011;13816;53.628;9.950;2022-11-15T12:20:52;13.30;;;11.30;;
26040;SDS011;13816;53.628;9.950;2022-11-15T12:24:28;21.80;;;11.37;;
26040;SDS011;13816;53.628;9.950;2022-11-15T12:26:55;13.13;;;11.03;;
26040;SDS011;13816;53.628;9.950;2022-11-15T12:32:04;14.93;;;11.73;;
26040;SDS011;13816;53.628;9.950;2022-11-15T12:34:41;15.33;;;11.60;;
26040;SDS011;13816;53.628;9.950;2022-11-15T12:40:21;13.57;;;10.97;;
26040;SDS011;13816;53.628;9.950;2022-11-15T12:42:57;14.50;;;10.93;;
26040;SDS011;13816;53.628;9.950;2022-11-15T12:47:57;15.40;;;11.23;;
26040;SDS011;13816;53.628;9.950;2022-11-15T12:50:53;14.17;;;11.50;;
26040;SDS011;13816;53.628;9.950;2022-11-15T13:06:45;13.43;;;10.90;;
26040;SDS011;13816;53.628;9.950;2022-11-15T13:15:30;13.60;;;10.53;;
26040;SDS011;13816;53.628;9.950;2022-11-15T13:22:46;15.77;;;11.40;;
26040;SDS011;13816;53.628;9.950;2022-11-15T13:28:41;14.47;;;11.27;;
26040;SDS011;13816;53.628;9.950;2022-11-15T13:34:27;15.00;;;11.20;;
26040;SDS011;13816;53.628;9.950;2022-11-15T13:36:57;19.00;;;10.60;;
26040;SDS011;13816;53.628;9.950;2022-11-15T13:39:33;14.93;;;11.50;;
26040;SDS011;13816;53.628;9.950;2022-11-15T13:42:02;15.90;;;11.03;;
26040;SDS011;13816;53.628;9.950;2022-11-15T13:44:29;14.87;;;10.60;;
26040;SDS011;13816;53.628;9.950;2022-11-15T13:47:01;15.10;;;10.77;;
26040;SDS011;13816;53.628;9.950;2022-11-15T13:49:31;16.30;;;11.77;;
26040;SDS011;13816;53.628;9.950;2022-11-15T13:51:58;13.20;;;9.90;;
26040;SDS011;13816;53.628;9.950;2022-11-15T13:57:00;14.17;;;10.57;;
26040;SDS011;13816;53.628;9.950;2022-11-15T13:59:30;16.40;;;10.80;;
26040;SDS011;13816;53.628;9.950;2022-11-15T14:02:02;17.53;;;11.00;;
26040;SDS011;13816;53.628;9.950;2022-11-15T14:04:37;17.03;;;11.80;;
26040;SDS011;13816;53.628;9.950;2022-11-15T14:07:14;14.50;;;11.17;;
26040;SDS011;13816;53.628;9.950;2022-11-15T14:09:43;15.70;;;12.20;;
26040;SDS011;13816;53.628;9.950;2022-11-15T14:14:54;20.73;;;11.43;;
26040;SDS011;13816;53.628;9.950;2022-11-15T14:17:32;15.47;;;11.23;;
26040;SDS011;13816;53.628;9.950;2022-11-15T14:20:00;14.23;;;10.70;;
26040;SDS011;13816;53.628;9.950;2022-11-15T14:22:28;16.40;;;11.67;;
26040;SDS011;13816;53.628;9.950;2022-11-15T14:28:07;16.53;;;11.00;;
26040;SDS011;13816;53.628;9.950;2022-11-15T14:30:34;18.90;;;10.97;;
26040;SDS011;13816;53.628;9.950;2022-11-15T14:33:00;15.33;;;10.63;;
26040;SDS011;13816;53.628;9.950;2022-11-15T14:35:26;14.40;;;10.50;;
26040;SDS011;13816;53.628;9.950;2022-11-15T14:37:52;18.03;;;10.80;;
26040;SDS011;13816;53.628;9.950;2022-11-15T14:40:19;24.63;;;10.63;;
26040;SDS011;13816;53.628;9.950;2022-11-15T14:42:47;14.00;;;10.67;;
26040;SDS011;13816;53.628;9.950;2022-11-15T14:45:20;14.97;;;11.27;;
26040;SDS011;13816;53.628;9.950;2022-11-15T14:47:47;14.60;;;10.30;;
26040;SDS011;13816;53.628;9.950;2022-11-15T14:50:14;15.23;;;10.50;;
26040;SDS011;13816;53.628;9.950;2022-11-15T14:52:41;20.20;;;12.30;;
26040;SDS011;13816;53.628;9.950;2022-11-15T14:57:46;16.13;;;10.77;;
26040;SDS011;13816;53.628;9.950;2022-11-15T15:00:13;16.17;;;10.70;;
26040;SDS011;13816;53.628;9.950;2022-11-15T15:02:39;16.03;;;10.67;;
26040;SDS011;13816;53.628;9.950;2022-11-15T15:05:12;24.93;;;11.23;;
26040;SDS011;13816;53.628;9.950;2022-11-15T15:07:43;14.20;;;10.73;;
26040;SDS011;13816;53.628;9.950;2022-11-15T15:10:10;14.30;;;11.17;;
26040;SDS011;13816;53.628;9.950;2022-11-15T15:12:36;17.60;;;10.47;;
26040;SDS011;13816;53.628;9.950;2022-11-15T15:15:02;21.30;;;13.23;;
26040;SDS011;13816;53.628;9.950;2022-11-15T15:17:28;17.40;;;12.47;;
26040;SDS011;13816;53.628;9.950;2022-11-15T15:19:54;17.37;;;11.50;;
26040;SDS011;13816;53.628;9.950;2022-11-15T15:22:19;14.07;;;11.10;;
26040;SDS011;13816;53.628;9.950;2022-11-15T15:24:50;16.77;;;11.17;;
26040;SDS011;13816;53.628;9.950;2022-11-15T15:27:19;13.90;;;10.03;;
26040;SDS011;13816;53.628;9.950;2022-11-15T15:29:45;13.40;;;10.50;;
26040;SDS011;13816;53.628;9.950;2022-11-15T15:32:11;14.90;;;10.90;;
26040;SDS011;13816;53.628;9.950;2022-11-15T15:34:38;15.50;;;11.47;;
26040;SDS011;13816;53.628;9.950;2022-11-15T15:39:33;16.57;;;11.30;;
26040;SDS011;13816;53.628;9.950;2022-11-15T15:41:59;13.23;;;10.60;;
26040;SDS011;13816;53.628;9.950;2022-11-15T15:44:26;15.03;;;10.90;;
26040;SDS011;13816;53.628;9.950;2022-11-15T15:46:52;19.77;;;10.73;;
26040;SDS011;13816;53.628;9.950;2022-11-15T15:49:17;14.20;;;10.80;;
26040;SDS011;13816;53.628;9.950;2022-11-15T15:51:43;17.90;;;11.43;;
26040;SDS011;13816;53.628;9.950;2022-11-15T15:54:12;14.73;;;11.30;;
26040;SDS011;13816;53.628;9.950;2022-11-15T15:56:38;14.90;;;10.73;;
26040;SDS011;13816;53.628;9.950;2022-11-15T15:59:03;15.13;;;10.73;;
26040;SDS011;13816;53.628;9.950;2022-11-15T16:01:29;16.23;;;10.57;;
26040;SDS011;13816;53.628;9.950;2022-11-15T16:03:55;20.17;;;11.60;;
26040;SDS011;13816;53.628;9.950;2022-11-15T16:06:33;17.13;;;11.30;;
26040;SDS011;13816;53.628;9.950;2022-11-15T16:09:01;16.63;;;11.50;;
26040;SDS011;13816;53.628;9.950;2022-11-15T16:11:28;14.50;;;11.87;;
26040;SDS011;13816;53.628;9.950;2022-11-15T16:13:53;16.53;;;11.10;;
26040;SDS011;13816;53.628;9.950;2022-11-15T16:16:19;15.30;;;9.67;;
26040;SDS011;13816;53.628;9.950;2022-11-15T16:18:46;19.57;;;10.73;;
26040;SDS011;13816;53.628;9.950;2022-11-15T16:21:12;18.03;;;11.17;;
26040;SDS011;13816;53.628;9.950;2022-11-15T16:23:38;14.30;;;11.50;;
26040;SDS011;13816;53.628;9.950;2022-11-15T16:26:10;15.97;;;10.50;;
26040;SDS011;13816;53.628;9.950;2022-11-15T16:28:45;17.10;;;10.90;;
26040;SDS011;13816;53.628;9.950;2022-11-15T16:31:11;24.33;;;15.60;;
26040;SDS011;13816;53.628;9.950;2022-11-15T16:33:37;14.43;;;11.97;;
26040;SDS011;13816;53.628;9.950;2022-11-15T16:36:04;22.30;;;16.90;;
26040;SDS011;13816;53.628;9.950;2022-11-15T16:38:31;21.70;;;15.77;;
26040;SDS011;13816;53.628;9.950;2022-11-15T16:40:58;14.73;;;11.83;;
26040;SDS011;13816;53.628;9.950;2022-11-15T16:43:24;19.20;;;13.10;;
26040;SDS011;13816;53.628;9.950;2022-11-15T16:45:49;23.83;;;16.90;;
26040;SDS011;13816;53.628;9.950;2022-11-15T16:48:25;25.27;;;15.30;;
26040;SDS011;13816;53.628;9.950;2022-11-15T16:50:55;16.10;;;12.73;;
26040;SDS011;13816;53.628;9.950;2022-11-15T16:53:22;15.17;;;12.40;;
26040;SDS011;13816;53.628;9.950;2022-11-15T16:55:49;14.67;;;11.17;;
26040;SDS011;13816;53.628;9.950;2022-11-15T16:58:14;15.50;;;11.47;;
26040;SDS011;13816;53.628;9.950;2022-11-15T17:00:40;17.00;;;11.50;;
26040;SDS011;13816;53.628;9.950;2022-11-15T17:03:06;17.73;;;12.10;;
26040;SDS011;13816;53.628;9.950;2022-11-15T17:05:31;18.93;;;11.70;;
26040;SDS011;13816;53.628;9.950;2022-11-15T17:07:57;15.77;;;12.50;;
26040;SDS011;13816;53.628;9.950;2022-11-15T17:10:23;16.20;;;12.57;;
26040;SDS011;13816;53.628;9.950;2022-11-15T17:12:50;21.03;;;12.97;;
26040;SDS011;13816;53.628;9.950;2022-11-15T17:15:17;17.57;;;13.37;;
26040;SDS011;13816;53.628;9.950;2022-11-15T17:17:43;16.30;;;12.73;;
26040;SDS011;13816;53.628;9.950;2022-11-15T17:20:15;14.30;;;11.87;;
26040;SDS011;13816;53.628;9.950;2022-11-15T17:22:42;17.47;;;13.00;;
26040;SDS011;13816;53.628;9.950;2022-11-15T17:25:09;18.80;;;13.90;;
26040;SDS011;13816;53.628;9.950;2022-11-15T17:27:35;17.30;;;11.93;;
26040;SDS011;13816;53.628;9.950;2022-11-15T17:30:00;15.80;;;11.83;;
26040;SDS011;13816;53.628;9.950;2022-11-15T17:32:26;20.53;;;12.20;;
26040;SDS011;13816;53.628;9.950;2022-11-15T17:34:52;18.00;;;12.80;;
26040;SDS011;13816;53.628;9.950;2022-11-15T17:37:18;32.00;;;15.60;;
26040;SDS011;13816;53.628;9.950;2022-11-15T17:39:43;21.50;;;14.50;;
26040;SDS011;13816;53.628;9.950;2022-11-15T17:42:09;27.20;;;15.73;;
26040;SDS011;13816;53.628;9.950;2022-11-15T17:44:35;94.10;;;47.57;;
26040;SDS011;13816;53.628;9.950;2022-11-15T17:47:00;53.13;;;28.73;;
26040;SDS011;13816;53.628;9.950;2022-11-15T17:49:26;22.93;;;16.20;;
26040;SDS011;13816;53.628;9.950;2022-11-15T17:51:52;22.10;;;12.97;;
26040;SDS011;13816;53.628;9.950;2022-11-15T17:54:18;15.83;;;12.17;;
26040;SDS011;13816;53.628;9.950;2022-11-15T17:56:43;16.67;;;12.80;;
26040;SDS011;13816;53.628;9.950;2022-11-15T17:59:09;15.03;;;12.10;;